Time;durP1;ratioP1;P1;durP2;ratioP2;P2;SDS_P1;SDS_P2;PMS_P1;PMS_P2;Temp;Humidity;BMP_temperature;BMP_pressure;BME280_temperature;BME280_humidity;BME280_pressure;Samples;Min_cycle;Max_cycle;Signal;HPM_P1;HPM_P2
2022/05/25 00:01:27;;;;;;;1.90;0.60;;;17.20;99.90;;;;;;5011526;28;20217;-65
2022/05/25 00:03:54;;;;;;;2.73;0.70;;;17.20;99.90;;;;;;5011560;28;20638;-65
2022/05/25 00:06:20;;;;;;;2.97;0.57;;;17.20;99.90;;;;;;5011493;28;20231;-65
2022/05/25 00:08:47;;;;;;;1.13;0.80;;;17.10;99.90;;;;;;5011554;28;20215;-65
2022/05/25 00:11:15;;;;;;;2.57;0.90;;;17.10;99.90;;;;;;5011418;28;20215;-64
2022/05/25 00:13:42;;;;;;;3.63;0.70;;;17.10;99.90;;;;;;5011490;28;20203;-66
2022/05/25 00:16:08;;;;;;;3.03;0.70;;;17.10;99.90;;;;;;5011340;28;20511;-65
2022/05/25 00:18:35;;;;;;;0.93;0.53;;;17.10;99.90;;;;;;5011783;28;20207;-65
2022/05/25 00:21:01;;;;;;;1.40;0.50;;;17.10;99.90;;;;;;5011045;28;20211;-66
2022/05/25 00:23:28;;;;;;;2.03;0.40;;;17.10;99.90;;;;;;5011531;28;20269;-66
2022/05/25 00:25:56;;;;;;;1.57;0.60;;;17.10;99.90;;;;;;5011391;28;20231;-66
2022/05/25 00:28:25;;;;;;;1.93;0.60;;;17.10;99.90;;;;;;5011355;28;20653;-66
2022/05/25 00:30:52;;;;;;;1.20;0.63;;;17.20;99.90;;;;;;5011494;28;20211;-66
2022/05/25 00:33:20;;;;;;;0.87;0.60;;;17.20;99.90;;;;;;5014705;28;20739;-66
2022/05/25 00:35:47;;;;;;;2.63;0.60;;;17.20;99.90;;;;;;5014775;28;20239;-65
2022/05/25 00:38:14;;;;;;;2.50;0.60;;;17.20;99.90;;;;;;5015001;28;20211;-65
2022/05/25 00:40:43;;;;;;;2.10;0.57;;;17.10;99.90;;;;;;5014648;28;20219;-65
2022/05/25 00:43:11;;;;;;;8.23;1.13;;;17.10;99.90;;;;;;5014670;28;20253;-65
2022/05/25 00:45:43;;;;;;;0.60;0.60;;;17.10;99.90;;;;;;5014861;28;20211;-64
2022/05/25 00:48:16;;;;;;;1.90;0.70;;;17.10;99.90;;;;;;5014409;28;20215;-64
2022/05/25 00:53:28;;;;;;;2.27;0.80;;;17.10;99.90;;;;;;5014572;28;20229;-65
2022/05/25 00:55:56;;;;;;;2.00;0.80;;;17.10;99.90;;;;;;5014369;28;20227;-65
2022/05/25 00:58:24;;;;;;;3.33;0.70;;;17.10;99.90;;;;;;5014165;28;20671;-65
2022/05/25 01:00:52;;;;;;;2.40;0.77;;;17.00;99.90;;;;;;5014032;28;20215;-65
2022/05/25 01:03:19;;;;;;;2.87;0.80;;;17.00;99.90;;;;;;5015526;28;20210;-65
2022/05/25 01:05:55;;;;;;;1.23;0.80;;;17.00;99.90;;;;;;5016268;28;20261;-65
2022/05/25 01:08:35;;;;;;;1.83;0.73;;;17.00;99.90;;;;;;5016562;28;20280;-65
2022/05/25 01:11:17;;;;;;;0.60;0.60;;;17.00;99.90;;;;;;5015591;28;20213;-65
2022/05/25 01:13:51;;;;;;;1.20;0.60;;;17.00;99.90;;;;;;5014112;28;20257;-65
2022/05/25 01:16:28;;;;;;;2.63;0.60;;;17.00;99.90;;;;;;5013932;28;20519;-66
2022/05/25 01:19:04;;;;;;;2.20;0.60;;;16.90;99.90;;;;;;5014051;28;20257;-65
2022/05/25 01:21:39;;;;;;;2.10;0.73;;;16.90;99.90;;;;;;5013597;28;20207;-65
2022/05/25 01:24:19;;;;;;;2.97;0.60;;;16.80;99.90;;;;;;5014055;28;20693;-65
2022/05/25 01:27:13;;;;;;;2.20;0.50;;;16.80;99.90;;;;;;5013819;28;20234;-66
2022/05/25 01:29:52;;;;;;;2.63;0.80;;;16.80;99.90;;;;;;5013541;28;20206;-65
2022/05/25 01:32:27;;;;;;;2.37;0.70;;;16.80;99.90;;;;;;5013804;28;20238;-65
2022/05/25 01:34:59;;;;;;;1.13;0.50;;;16.70;99.90;;;;;;5013801;28;20206;-65
2022/05/25 01:37:32;;;;;;;2.60;1.03;;;16.70;99.90;;;;;;5013592;28;20222;-65
2022/05/25 01:40:05;;;;;;;1.87;0.63;;;16.70;99.90;;;;;;5013493;28;20214;-65
2022/05/25 01:42:39;;;;;;;1.50;0.90;;;16.70;99.90;;;;;;5012942;28;20213;-65
2022/05/25 01:45:09;;;;;;;1.60;0.67;;;16.70;99.90;;;;;;5013562;28;20234;-65
2022/05/25 01:47:42;;;;;;;4.00;0.87;;;16.70;99.90;;;;;;5013465;28;20230;-65
2022/05/25 01:50:13;;;;;;;1.67;0.73;;;16.70;99.90;;;;;;5013506;28;20840;-65
2022/05/25 01:52:44;;;;;;;3.37;0.80;;;16.70;99.90;;;;;;5013272;28;20710;-65
2022/05/25 01:55:15;;;;;;;1.57;0.73;;;16.60;99.90;;;;;;5013673;28;20266;-65
2022/05/25 01:57:47;;;;;;;1.67;0.90;;;16.70;99.90;;;;;;5013131;28;20808;-65
2022/05/25 02:00:29;;;;;;;1.80;0.80;;;16.70;99.90;;;;;;5013074;28;20590;-65
2022/05/25 02:05:49;;;;;;;0.53;0.53;;;16.70;99.90;;;;;;5013048;28;20246;-65
2022/05/25 02:08:23;;;;;;;1.17;0.83;;;16.60;99.90;;;;;;5012975;28;20593;-65
2022/05/25 02:11:00;;;;;;;1.07;0.60;;;16.60;99.90;;;;;;5012942;28;20206;-65
2022/05/25 02:13:35;;;;;;;2.03;0.53;;;16.60;99.90;;;;;;5013008;28;20222;-65
2022/05/25 02:16:18;;;;;;;1.20;0.90;;;16.60;99.90;;;;;;5013019;28;20245;-65
2022/05/25 02:18:52;;;;;;;0.93;0.60;;;16.50;99.90;;;;;;5012948;28;20297;-65
2022/05/25 02:21:26;;;;;;;1.07;0.70;;;16.60;99.90;;;;;;5012989;28;20585;-65
2022/05/25 02:23:57;;;;;;;3.23;0.90;;;16.50;99.90;;;;;;5013230;28;20207;-65
2022/05/25 02:26:29;;;;;;;3.17;1.00;;;16.40;99.90;;;;;;5012640;28;20839;-65
2022/05/25 02:29:01;;;;;;;4.77;1.20;;;16.40;99.90;;;;;;5012984;28;20286;-65
2022/05/25 02:31:36;;;;;;;1.87;0.77;;;16.30;99.90;;;;;;5012529;28;20229;-66
2022/05/25 02:34:05;;;;;;;1.70;0.80;;;16.40;99.90;;;;;;5012772;28;20276;-65
2022/05/25 02:36:35;;;;;;;2.20;0.67;;;16.40;99.90;;;;;;5012397;28;20234;-65
2022/05/25 02:39:04;;;;;;;2.43;0.90;;;16.40;99.90;;;;;;5012848;28;20294;-65
2022/05/25 02:41:34;;;;;;;2.63;0.87;;;16.30;99.90;;;;;;5012357;28;20682;-65
2022/05/25 02:44:03;;;;;;;2.53;0.60;;;16.30;99.90;;;;;;5012628;28;20199;-65
2022/05/25 02:46:31;;;;;;;3.70;0.90;;;16.30;99.90;;;;;;5012339;28;20230;-65
2022/05/25 02:48:58;;;;;;;4.73;0.97;;;16.30;99.90;;;;;;5012464;28;20560;-66
2022/05/25 02:51:25;;;;;;;3.33;1.10;;;16.30;99.90;;;;;;5012441;28;20288;-65
2022/05/25 02:53:51;;;;;;;2.20;1.10;;;16.20;99.90;;;;;;5011644;28;20722;-65
2022/05/25 02:56:18;;;;;;;2.87;0.90;;;16.20;99.90;;;;;;5012292;28;20284;-65
2022/05/25 02:58:45;;;;;;;2.23;1.40;;;16.10;99.90;;;;;;5012352;28;20214;-65
2022/05/25 03:01:11;;;;;;;2.47;1.43;;;16.10;99.90;;;;;;5012203;28;20214;-65
2022/05/25 03:03:40;;;;;;;3.60;0.90;;;16.10;99.90;;;;;;5012013;28;20257;-66
2022/05/25 03:06:08;;;;;;;5.37;1.00;;;16.10;99.90;;;;;;5012214;28;20714;-65
2022/05/25 03:08:35;;;;;;;3.60;1.23;;;16.10;99.90;;;;;;5012165;28;20211;-65
2022/05/25 03:11:03;;;;;;;1.90;1.13;;;16.00;99.90;;;;;;5011895;28;20210;-65
2022/05/25 03:13:30;;;;;;;2.40;1.10;;;16.00;99.90;;;;;;5012031;28;20230;-66
2022/05/25 03:15:58;;;;;;;1.83;1.10;;;16.00;99.90;;;;;;5011706;28;20238;-65
2022/05/25 03:18:25;;;;;;;2.30;0.77;;;16.00;99.90;;;;;;5012178;28;20269;-65
2022/05/25 03:20:53;;;;;;;6.23;3.10;;;15.90;99.90;;;;;;5012059;28;20600;-65
2022/05/25 03:23:19;;;;;;;2.90;1.70;;;15.90;99.90;;;;;;5012105;28;20211;-65
2022/05/25 03:25:47;;;;;;;1.40;1.07;;;15.90;99.90;;;;;;5011934;28;20227;-65
2022/05/25 03:28:14;;;;;;;2.37;1.63;;;15.90;99.90;;;;;;5011900;28;20211;-65
2022/05/25 03:30:43;;;;;;;2.03;1.10;;;15.90;99.90;;;;;;5011648;28;20214;-65
2022/05/25 03:33:10;;;;;;;1.87;1.30;;;15.90;99.90;;;;;;5011934;28;20234;-65
2022/05/25 03:35:37;;;;;;;4.50;1.40;;;15.90;99.90;;;;;;5011714;28;20210;-65
2022/05/25 03:38:06;;;;;;;4.30;1.37;;;15.90;99.90;;;;;;5011933;28;20206;-66
2022/05/25 03:40:33;;;;;;;7.27;4.00;;;15.90;99.90;;;;;;5011437;28;20253;-66
2022/05/25 03:43:00;;;;;;;2.57;1.90;;;15.90;99.90;;;;;;5011760;28;20211;-66
2022/05/25 03:45:27;;;;;;;3.43;1.90;;;15.90;99.90;;;;;;5011904;28;20259;-66
2022/05/25 03:47:53;;;;;;;2.20;1.50;;;15.90;99.90;;;;;;5011848;28;20210;-66
2022/05/25 03:50:23;;;;;;;3.20;1.60;;;15.90;99.90;;;;;;5011547;28;20210;-65
2022/05/25 03:52:50;;;;;;;1.67;0.90;;;15.90;99.90;;;;;;5011639;28;20602;-66
2022/05/25 03:55:18;;;;;;;1.77;1.00;;;15.90;99.90;;;;;;5011665;28;20694;-65
2022/05/25 03:57:45;;;;;;;1.43;1.07;;;15.90;99.90;;;;;;5011726;28;20227;-65
2022/05/25 04:00:12;;;;;;;1.60;1.40;;;15.90;99.90;;;;;;5011667;28;20255;-65
2022/05/25 04:02:39;;;;;;;5.47;1.50;;;15.80;99.90;;;;;;5011693;28;20237;-65
2022/05/25 04:05:09;;;;;;;2.47;1.50;;;15.80;99.90;;;;;;5012560;28;20257;-66
2022/05/25 04:07:38;;;;;;;2.73;1.50;;;15.90;99.90;;;;;;5015499;28;20863;-65
2022/05/25 04:10:06;;;;;;;2.90;1.30;;;15.90;99.90;;;;;;5015590;28;20213;-64
2022/05/25 04:12:34;;;;;;;2.27;1.63;;;15.90;99.90;;;;;;5015626;28;20219;-65
2022/05/25 04:15:01;;;;;;;5.43;1.20;;;15.90;99.90;;;;;;5015669;28;20217;-65
2022/05/25 04:17:29;;;;;;;1.27;1.07;;;15.90;99.90;;;;;;5014989;28;20240;-65
2022/05/25 04:19:56;;;;;;;3.67;1.60;;;15.90;99.90;;;;;;5014925;28;20210;-65
2022/05/25 04:22:23;;;;;;;2.70;1.10;;;16.00;99.90;;;;;;5015466;28;20211;-65
2022/05/25 04:24:50;;;;;;;2.83;1.10;;;16.00;99.90;;;;;;5015373;28;20222;-65
2022/05/25 04:27:17;;;;;;;2.43;1.07;;;16.00;99.90;;;;;;5015069;28;20300;-66
2022/05/25 04:29:45;;;;;;;1.27;1.17;;;16.00;99.90;;;;;;5014788;28;20741;-66
2022/05/25 04:32:14;;;;;;;2.53;1.63;;;16.00;99.90;;;;;;5015155;28;20250;-66
2022/05/25 04:34:41;;;;;;;1.70;1.00;;;16.10;99.90;;;;;;5014974;28;20241;-66
2022/05/25 04:39:51;;;;;;;1.03;0.80;;;16.10;99.90;;;;;;5015050;28;20276;-66
2022/05/25 04:42:18;;;;;;;1.70;1.10;;;16.20;99.90;;;;;;5014878;28;20217;-66
2022/05/25 04:44:47;;;;;;;3.27;1.13;;;16.20;99.90;;;;;;5014806;28;20226;-66
2022/05/25 04:47:13;;;;;;;4.43;1.40;;;16.30;99.90;;;;;;5014687;28;20231;-66
2022/05/25 04:49:44;;;;;;;2.30;1.10;;;16.30;99.90;;;;;;5014461;28;20293;-67
2022/05/25 04:52:11;;;;;;;3.70;1.03;;;16.30;99.90;;;;;;5014988;28;20242;-66
2022/05/25 04:54:37;;;;;;;1.10;0.93;;;16.40;99.90;;;;;;5014775;28;20234;-66
2022/05/25 04:57:19;;;;;;;2.33;0.90;;;16.40;99.90;;;;;;5014706;28;20227;-65
2022/05/25 04:59:48;;;;;;;3.70;0.70;;;16.50;99.90;;;;;;5014251;28;20202;-65
2022/05/25 05:02:15;;;;;;;1.93;0.90;;;16.60;99.90;;;;;;5014268;28;20207;-66
2022/05/25 05:04:42;;;;;;;5.97;1.20;;;16.70;99.90;;;;;;5014389;28;20229;-66
2022/05/25 05:07:08;;;;;;;4.07;2.77;;;16.80;99.90;;;;;;5014003;28;20707;-66
2022/05/25 05:09:36;;;;;;;2.50;1.00;;;16.90;99.90;;;;;;5014376;28;20273;-66
2022/05/25 05:12:04;;;;;;;3.10;0.90;;;16.90;99.90;;;;;;5014030;28;20858;-66
2022/05/25 05:14:31;;;;;;;1.60;1.00;;;17.00;99.90;;;;;;5014274;28;20230;-66
2022/05/25 05:17:01;;;;;;;2.03;0.90;;;17.10;99.90;;;;;;5013491;28;20250;-68
2022/05/25 05:19:29;;;;;;;3.28;0.80;;;17.10;99.90;;;;;;5014116;28;20703;-67
2022/05/25 05:21:57;;;;;;;2.10;1.00;;;17.20;99.90;;;;;;5013503;28;20211;-67
2022/05/25 05:24:24;;;;;;;1.65;1.05;;;17.20;99.90;;;;;;5013936;28;20207;-67
2022/05/25 05:26:51;;;;;;;5.20;1.73;;;17.40;99.90;;;;;;5013732;28;20269;-67
2022/05/25 05:29:17;;;;;;;2.43;0.70;;;17.50;99.90;;;;;;5014007;28;20586;-67
2022/05/25 05:31:44;;;;;;;1.83;0.80;;;17.70;99.90;;;;;;5013848;28;20218;-66
2022/05/25 05:34:12;;;;;;;2.77;1.10;;;17.90;99.90;;;;;;5013708;28;20262;-67
2022/05/25 05:36:45;;;;;;;2.70;0.80;;;18.00;99.90;;;;;;5013593;28;20234;-67
2022/05/25 05:39:14;;;;;;;2.30;0.90;;;18.20;99.90;;;;;;5013925;28;20239;-66
2022/05/25 05:41:46;;;;;;;4.87;1.20;;;18.40;99.90;;;;;;5013265;28;20253;-67
2022/05/25 05:44:16;;;;;;;3.65;0.80;;;18.60;99.90;;;;;;5013701;28;20194;-67
2022/05/25 05:46:44;;;;;;;5.18;0.98;;;18.90;99.90;;;;;;5013546;28;20227;-69
2022/05/25 05:49:13;;;;;;;3.08;0.60;;;19.60;99.90;;;;;;5013363;28;20214;-66
2022/05/25 05:51:42;;;;;;;3.50;0.68;;;20.60;99.90;;;;;;5013343;28;20215;-66
2022/05/25 05:54:09;;;;;;;1.70;1.00;;;21.50;99.90;;;;;;5013284;28;20246;-66
2022/05/25 05:56:36;;;;;;;2.30;0.77;;;21.90;99.90;;;;;;5012998;28;20238;-66
2022/05/25 05:59:03;;;;;;;2.88;0.65;;;22.00;99.60;;;;;;5013580;28;20210;-67
2022/05/25 06:01:30;;;;;;;2.45;1.23;;;21.80;98.90;;;;;;5013401;28;20203;-67
2022/05/25 06:03:57;;;;;;;3.67;0.93;;;21.70;98.60;;;;;;5012982;28;20206;-66
2022/05/25 06:06:25;;;;;;;29.35;25.92;;;22.30;98.50;;;;;;5012695;28;20230;-66
2022/05/25 06:08:52;;;;;;;5.88;1.15;;;24.50;96.10;;;;;;5013017;28;20210;-66
2022/05/25 06:11:20;;;;;;;4.32;0.88;;;27.20;90.40;;;;;;5013229;28;20211;-65
2022/05/25 06:13:47;;;;;;;0.93;0.60;;;29.50;79.90;;;;;;5014117;28;20219;-63
2022/05/25 06:21:44;;;;;;;1.35;0.95;;;34.40;55.40;;;;;;5012993;28;20237;-60
2022/05/25 06:24:11;;;;;;;5.18;2.38;;;33.90;55.00;;;;;;5014237;28;20222;-60
2022/05/25 06:26:37;;;;;;;1.73;1.10;;;34.20;54.10;;;;;;5014117;28;20282;-61
2022/05/25 06:29:04;;;;;;;13.57;10.77;;;34.90;51.60;;;;;;5014220;28;20211;-60
2022/05/25 06:31:33;;;;;;;1.90;1.23;;;34.40;52.00;;;;;;5013897;28;20211;-61
2022/05/25 06:33:59;;;;;;;1.95;0.70;;;33.10;52.30;;;;;;5012395;28;20285;-60
2022/05/25 06:36:28;;;;;;;5.22;4.40;;;31.70;53.60;;;;;;5012483;28;20674;-60
2022/05/25 06:38:57;;;;;;;1.73;0.85;;;30.20;56.00;;;;;;5012379;28;20215;-61
2022/05/25 06:41:24;;;;;;;3.17;0.88;;;28.90;57.60;;;;;;5012164;28;20210;-60
2022/05/25 06:43:51;;;;;;;4.70;3.05;;;27.90;59.60;;;;;;5012273;28;20309;-60
2022/05/25 06:46:19;;;;;;;3.17;1.42;;;27.60;61.80;;;;;;5012087;28;20231;-60
2022/05/25 06:48:46;;;;;;;7.50;2.67;;;28.80;59.60;;;;;;5012245;28;20245;-60
2022/05/25 06:51:15;;;;;;;4.95;2.70;;;29.70;57.90;;;;;;5012299;28;20257;-60
2022/05/25 06:53:42;;;;;;;7.43;4.07;;;31.20;55.40;;;;;;5011960;28;20694;-61
2022/05/25 06:56:10;;;;;;;3.85;1.60;;;31.00;56.20;;;;;;5012020;28;20601;-58
2022/05/25 06:58:37;;;;;;;3.67;2.13;;;30.60;56.10;;;;;;5012349;28;20266;-60
2022/05/25 07:01:04;;;;;;;7.88;3.75;;;30.50;56.70;;;;;;5011632;28;20219;-59
2022/05/25 07:03:31;;;;;;;5.75;2.53;;;30.40;57.10;;;;;;5011894;28;20265;-58
2022/05/25 07:05:59;;;;;;;4.22;1.58;;;30.80;55.60;;;;;;5012160;28;20301;-62
2022/05/25 07:08:25;;;;;;;1.42;0.73;;;30.90;55.10;;;;;;5012038;28;20207;-61
2022/05/25 07:10:52;;;;;;;5.40;1.38;;;31.50;54.30;;;;;;5011924;28;20206;-63
2022/05/25 07:13:20;;;;;;;1.70;0.90;;;31.30;54.10;;;;;;5011820;28;20687;-60
2022/05/25 07:15:47;;;;;;;2.90;1.70;;;31.50;54.90;;;;;;5011654;28;20242;-61
2022/05/25 07:18:13;;;;;;;4.63;1.60;;;31.60;53.90;;;;;;5012208;28;20211;-61
2022/05/25 07:20:40;;;;;;;1.92;0.80;;;31.60;54.10;;;;;;5012104;28;20583;-61
2022/05/25 07:23:07;;;;;;;9.13;6.07;;;31.40;53.30;;;;;;5012216;28;20211;-61
2022/05/25 07:25:33;;;;;;;4.30;0.93;;;32.30;54.00;;;;;;5011867;28;20207;-60
2022/05/25 07:28:00;;;;;;;2.13;1.58;;;33.90;50.90;;;;;;5011744;28;20722;-61
2022/05/25 07:30:29;;;;;;;3.58;1.83;;;35.00;49.50;;;;;;5011864;28;20670;-61
2022/05/25 07:32:58;;;;;;;2.80;1.55;;;36.30;48.00;;;;;;5012191;28;20211;-61
2022/05/25 07:35:25;;;;;;;3.20;0.90;;;37.10;44.60;;;;;;5011826;28;20238;-61
2022/05/25 07:37:54;;;;;;;3.70;1.20;;;34.70;46.10;;;;;;5011814;28;20235;-61
2022/05/25 07:40:26;;;;;;;1.08;0.60;;;34.00;48.40;;;;;;5012676;28;20219;-61
2022/05/25 07:42:58;;;;;;;2.13;0.95;;;35.00;46.90;;;;;;5015805;28;20309;-61
2022/05/25 07:45:25;;;;;;;1.98;1.48;;;35.80;44.80;;;;;;5015664;28;20203;-61
2022/05/25 07:47:54;;;;;;;2.58;0.80;;;36.10;45.90;;;;;;5015725;28;20206;-61
2022/05/25 07:50:21;;;;;;;1.65;0.60;;;36.90;44.00;;;;;;5015763;28;20657;-61
2022/05/25 07:52:48;;;;;;;1.83;0.85;;;38.10;42.90;;;;;;5016106;28;20211;-61
2022/05/25 07:55:15;;;;;;;2.10;1.08;;;39.30;41.20;;;;;;5015556;28;20231;-61
2022/05/25 07:57:41;;;;;;;1.73;0.80;;;40.10;39.60;;;;;;5015700;28;20596;-61
2022/05/25 08:00:10;;;;;;;3.22;1.35;;;40.40;38.90;;;;;;5015800;28;20230;-60
2022/05/25 08:05:47;;;;;;;1.35;0.90;;;39.90;37.30;;;;;;5015953;28;20206;-61
2022/05/25 08:08:16;;;;;;;1.90;0.88;;;39.30;39.10;;;;;;5015429;28;20213;-61
2022/05/25 08:10:45;;;;;;;1.48;0.98;;;39.30;39.10;;;;;;5014820;28;20564;-61
2022/05/25 08:13:14;;;;;;;2.08;0.98;;;39.30;38.30;;;;;;5015326;28;20206;-61
2022/05/25 08:15:43;;;;;;;2.63;1.00;;;37.90;40.00;;;;;;5015172;28;20242;-60
2022/05/25 08:18:10;;;;;;;1.92;1.10;;;37.90;40.00;;;;;;5014972;28;20746;-61
2022/05/25 08:20:38;;;;;;;2.30;1.40;;;37.20;40.50;;;;;;5014965;28;20203;-61
2022/05/25 08:23:06;;;;;;;1.60;1.10;;;37.40;40.30;;;;;;5015097;28;20269;-61
2022/05/25 08:25:34;;;;;;;2.10;0.98;;;38.10;39.80;;;;;;5014768;28;20892;-60
2022/05/25 08:28:01;;;;;;;2.10;1.08;;;38.90;38.90;;;;;;5014905;28;20301;-60
2022/05/25 08:30:28;;;;;;;1.67;1.10;;;39.70;37.50;;;;;;5014576;28;20206;-60
2022/05/25 08:32:55;;;;;;;3.65;0.80;;;40.00;37.50;;;;;;5014842;28;20742;-59
2022/05/25 08:35:22;;;;;;;1.10;0.70;;;38.40;38.70;;;;;;5014305;28;20711;-59
2022/05/25 08:37:50;;;;;;;2.15;0.98;;;35.20;42.30;;;;;;5014675;28;20203;-60
2022/05/25 08:40:20;;;;;;;6.13;1.02;;;34.00;43.50;;;;;;5014450;28;20207;-59
2022/05/25 08:42:52;;;;;;;2.85;1.20;;;33.30;44.30;;;;;;5014496;28;20213;-60
2022/05/25 08:45:19;;;;;;;3.47;1.00;;;32.50;45.50;;;;;;5014526;28;20203;-62
2022/05/25 08:47:51;;;;;;;3.15;1.13;;;30.30;47.30;;;;;;5014758;28;20222;-59
2022/05/25 08:50:18;;;;;;;2.30;0.95;;;28.30;51.10;;;;;;5014445;28;20261;-58
2022/05/25 08:52:45;;;;;;;2.50;1.20;;;26.80;53.70;;;;;;5013529;28;20269;-60
2022/05/25 08:55:27;;;;;;;1.98;1.05;;;26.10;55.50;;;;;;5014383;28;20226;-60
2022/05/25 08:57:57;;;;;;;2.55;0.98;;;25.50;55.80;;;;;;5014199;28;20290;-60
2022/05/25 09:00:24;;;;;;;3.45;1.45;;;24.90;57.50;;;;;;5014520;28;20207;-61
2022/05/25 09:02:59;;;;;;;2.65;1.38;;;24.50;59.20;;;;;;5014245;28;20254;-61
2022/05/25 09:05:32;;;;;;;5.85;1.10;;;24.30;59.10;;;;;;5014431;28;20202;-61
2022/05/25 09:08:06;;;;;;;1.80;1.08;;;24.20;58.10;;;;;;5014332;28;20210;-60
2022/05/25 09:10:42;;;;;;;2.65;1.30;;;24.20;58.90;;;;;;5014093;28;20632;-60
2022/05/25 09:13:14;;;;;;;4.10;0.93;;;24.20;58.40;;;;;;5014070;28;20207;-60
2022/05/25 09:18:33;;;;;;;1.20;0.70;;;24.50;58.80;;;;;;5013098;28;20213;-60
2022/05/25 09:21:01;;;;;;;2.22;0.80;;;24.50;58.10;;;;;;5013580;28;20210;-60
2022/05/25 09:23:28;;;;;;;3.15;1.13;;;24.40;59.20;;;;;;5013884;28;20252;-59
2022/05/25 09:25:57;;;;;;;3.35;0.80;;;24.40;58.70;;;;;;5013835;28;20254;-60
2022/05/25 09:28:30;;;;;;;4.53;1.30;;;24.40;57.30;;;;;;5013926;28;20212;-60
2022/05/25 09:31:01;;;;;;;4.88;1.73;;;24.10;58.80;;;;;;5013545;28;20257;-59
2022/05/25 09:33:34;;;;;;;3.13;0.95;;;24.10;59.20;;;;;;5014386;28;20475;-60
2022/05/25 09:36:08;;;;;;;4.00;1.20;;;24.20;57.40;;;;;;5013733;28;20234;-60
2022/05/25 09:38:42;;;;;;;2.20;1.23;;;24.10;58.90;;;;;;5013868;28;20654;-60
2022/05/25 09:41:12;;;;;;;4.18;1.20;;;24.20;58.90;;;;;;5013307;28;20754;-59
2022/05/25 09:43:40;;;;;;;2.55;1.10;;;24.40;58.30;;;;;;5013760;28;20206;-59
2022/05/25 09:46:10;;;;;;;1.90;0.68;;;24.80;56.90;;;;;;5013786;28;20269;-61
2022/05/25 09:48:47;;;;;;;4.35;0.80;;;25.20;56.70;;;;;;5014073;28;20211;-61
2022/05/25 09:51:22;;;;;;;1.80;0.68;;;25.70;55.30;;;;;;5013142;28;20248;-61
2022/05/25 09:53:52;;;;;;;2.28;1.00;;;26.00;53.90;;;;;;5013195;28;20671;-62
2022/05/25 09:56:23;;;;;;;2.53;0.73;;;26.00;54.20;;;;;;5013114;28;20650;-63
2022/05/25 09:58:53;;;;;;;6.80;1.08;;;26.00;54.30;;;;;;5013298;28;20302;-62
2022/05/25 10:01:24;;;;;;;3.35;0.80;;;26.00;54.10;;;;;;5013054;28;20297;-62
2022/05/25 10:03:51;;;;;;;3.50;1.30;;;25.90;53.60;;;;;;5012950;28;20425;-62
2022/05/25 10:06:23;;;;;;;2.60;1.30;;;25.80;54.90;;;;;;5013232;28;20230;-64
2022/05/25 10:08:53;;;;;;;2.53;0.63;;;25.70;54.40;;;;;;5013080;28;20242;-63
2022/05/25 10:11:33;;;;;;;1.77;0.70;;;25.70;55.20;;;;;;5013086;28;20640;-62
2022/05/25 10:14:22;;;;;;;1.90;1.08;;;25.40;54.50;;;;;;5013065;28;20314;-63
2022/05/25 10:16:50;;;;;;;2.35;1.00;;;24.90;56.30;;;;;;5012829;28;20239;-62
2022/05/25 10:19:20;;;;;;;3.50;1.45;;;24.50;57.00;;;;;;5012576;28;20675;-62
2022/05/25 10:21:49;;;;;;;2.15;0.80;;;24.20;57.10;;;;;;5012394;28;20210;-60
2022/05/25 10:24:23;;;;;;;1.38;0.65;;;24.00;57.60;;;;;;5012867;28;20270;-63
2022/05/25 10:26:53;;;;;;;2.50;1.48;;;24.10;58.10;;;;;;5012854;28;20246;-59
2022/05/25 10:38:26;;;;;;;5.97;1.58;;;23.80;58.80;;;;;;5012739;28;20209;-62
2022/05/25 10:40:54;;;;;;;1.58;0.80;;;23.90;57.00;;;;;;5012541;28;20229;-63
2022/05/25 10:43:27;;;;;;;2.00;0.55;;;24.00;57.10;;;;;;5012320;28;20207;-63
2022/05/25 10:45:55;;;;;;;2.10;1.40;;;24.00;57.10;;;;;;5012089;28;20605;-64
2022/05/25 10:48:37;;;;;;;4.05;1.40;;;24.00;57.10;;;;;;5012657;28;20214;-63
2022/05/25 10:51:09;;;;;;;3.08;1.20;;;23.90;57.10;;;;;;5012421;28;20203;-64
2022/05/25 10:53:41;;;;;;;5.85;0.90;;;24.00;58.30;;;;;;5012629;28;20207;-63
2022/05/25 10:56:20;;;;;;;3.83;0.75;;;23.90;58.30;;;;;;5012397;28;20235;-63
2022/05/25 10:59:02;;;;;;;0.73;0.57;;;23.60;57.20;;;;;;5012444;28;20245;-64
2022/05/25 11:01:49;;;;;;;2.58;0.85;;;23.50;58.00;;;;;;5012110;28;20210;-64
2022/05/25 11:04:44;;;;;;;1.85;1.25;;;23.60;57.80;;;;;;5012648;28;20214;-64
2022/05/25 11:07:26;;;;;;;1.52;0.70;;;23.70;58.10;;;;;;5012329;28;20234;-64
2022/05/25 11:10:22;;;;;;;1.52;0.63;;;23.80;56.70;;;;;;5012206;28;20624;-64
2022/05/25 11:13:01;;;;;;;2.25;1.00;;;23.50;57.60;;;;;;5012196;28;20207;-63
2022/05/25 11:15:40;;;;;;;2.65;0.70;;;23.30;58.20;;;;;;5011258;28;20714;-63
2022/05/25 11:18:26;;;;;;;3.03;0.70;;;23.40;57.90;;;;;;5012446;28;20675;-64
2022/05/25 11:21:03;;;;;;;3.50;0.73;;;23.40;56.90;;;;;;5012053;28;20207;-64
2022/05/25 11:23:48;;;;;;;3.58;1.55;;;23.60;57.00;;;;;;5012292;28;20206;-65
2022/05/25 11:26:39;;;;;;;3.33;0.93;;;23.70;58.00;;;;;;5012497;28;20227;-63
2022/05/25 11:29:14;;;;;;;0.50;0.50;;;23.90;58.20;;;;;;5012303;28;20218;-63
2022/05/25 11:31:52;;;;;;;2.85;0.80;;;23.90;56.20;;;;;;5011774;28;20202;-63
2022/05/25 11:34:33;;;;;;;2.60;0.50;;;23.80;56.10;;;;;;5012435;28;20222;-64
2022/05/25 11:37:16;;;;;;;1.58;0.70;;;23.80;56.80;;;;;;5012084;28;20242;-63
2022/05/25 11:40:03;;;;;;;5.57;0.70;;;23.90;57.00;;;;;;5012354;28;20214;-64
2022/05/25 11:42:54;;;;;;;3.05;0.88;;;24.10;56.30;;;;;;5011817;28;20242;-63
2022/05/25 11:45:34;;;;;;;1.67;0.65;;;24.30;56.40;;;;;;5013413;28;20241;-62
2022/05/25 11:48:16;;;;;;;2.60;0.60;;;24.40;56.20;;;;;;5015358;28;20207;-62
2022/05/25 11:50:48;;;;;;;3.60;0.70;;;24.40;56.60;;;;;;5015457;28;20634;-61
2022/05/25 11:53:35;;;;;;;2.90;0.82;;;24.50;56.00;;;;;;5013553;28;20729;-61
2022/05/25 11:56:15;;;;;;;3.03;0.70;;;24.60;55.00;;;;;;5012745;28;20605;-63
2022/05/25 11:58:58;;;;;;;1.20;0.20;;;24.60;54.60;;;;;;5012480;28;20211;-61
2022/05/25 12:01:34;;;;;;;2.35;0.93;;;24.70;54.50;;;;;;5011884;28;20217;-62
2022/05/25 12:04:23;;;;;;;2.83;0.80;;;24.70;56.20;;;;;;5012038;28;20599;-61
2022/05/25 12:07:00;;;;;;;3.70;0.80;;;24.60;56.20;;;;;;5012414;28;20223;-62
2022/05/25 12:09:39;;;;;;;1.98;0.70;;;24.40;55.60;;;;;;5012516;28;20206;-62
2022/05/25 12:12:15;;;;;;;1.00;0.68;;;24.30;56.20;;;;;;5011931;28;20566;-62
2022/05/25 12:14:55;;;;;;;2.03;0.60;;;24.30;56.20;;;;;;5012797;28;20214;-63
2022/05/25 12:17:29;;;;;;;2.25;0.57;;;24.50;56.70;;;;;;5011127;28;20231;-62
2022/05/25 12:19:59;;;;;;;1.50;0.60;;;24.70;56.20;;;;;;5011335;28;20207;-62
2022/05/25 12:22:32;;;;;;;1.45;0.85;;;24.80;54.90;;;;;;5011279;28;20211;-62
2022/05/25 12:25:04;;;;;;;1.00;0.55;;;25.00;55.30;;;;;;5011538;28;20218;-61
2022/05/25 12:27:37;;;;;;;3.58;0.80;;;25.00;55.80;;;;;;5014389;28;20227;-62
2022/05/25 12:30:09;;;;;;;3.33;0.70;;;25.10;55.80;;;;;;5015047;28;20211;-62
2022/05/25 12:32:38;;;;;;;1.77;0.75;;;25.20;55.20;;;;;;5014704;28;20207;-64
2022/05/25 12:35:09;;;;;;;1.60;0.57;;;25.30;54.60;;;;;;5014816;28;20207;-62
2022/05/25 12:37:39;;;;;;;3.30;0.90;;;25.40;55.00;;;;;;5011028;28;20474;-59
2022/05/25 12:40:09;;;;;;;2.25;0.47;;;25.30;53.80;;;;;;5013184;28;20457;-61
2022/05/25 12:42:39;;;;;;;1.65;0.75;;;25.00;54.20;;;;;;5013427;28;20203;-61
2022/05/25 12:50:44;;;;;;;1.48;0.50;;;24.60;55.30;;;;;;5013516;28;20681;-61
2022/05/25 12:53:26;;;;;;;1.90;0.75;;;24.70;55.80;;;;;;5013305;28;20214;-61
2022/05/25 12:55:57;;;;;;;1.20;0.60;;;24.90;55.70;;;;;;5013895;28;20231;-61
2022/05/25 12:58:44;;;;;;;3.03;0.90;;;24.90;56.40;;;;;;5006044;28;20199;-61
2022/05/25 13:01:33;;;;;;;3.78;1.60;;;24.70;55.90;;;;;;5013117;28;20210;-63
2022/05/25 13:04:19;;;;;;;5.00;0.70;;;24.70;56.30;;;;;;5013359;28;20219;-63
2022/05/25 13:07:19;;;;;;;0.95;0.40;;;24.90;55.20;;;;;;5013173;28;20273;-62
2022/05/25 13:09:46;;;;;;;2.75;1.20;;;25.20;54.60;;;;;;4986384;28;20261;-64
2022/05/25 13:12:44;;;;;;;2.45;0.77;;;25.10;54.50;;;;;;5012798;28;20242;-66
2022/05/25 13:15:31;;;;;;;2.85;0.65;;;25.00;55.50;;;;;;5011362;28;20211;-64
2022/05/25 13:17:59;;;;;;;4.15;0.80;;;25.20;54.80;;;;;;5013029;28;20207;-65
2022/05/25 13:21:00;;;;;;;2.78;0.77;;;25.20;53.50;;;;;;5013105;28;20217;-64
2022/05/25 13:24:05;;;;;;;1.73;0.63;;;25.20;53.10;;;;;;5011590;28;20636;-64
2022/05/25 13:26:58;;;;;;;1.70;0.70;;;25.10;53.70;;;;;;5012033;28;20237;-65
2022/05/25 13:29:31;;;;;;;2.63;0.60;;;25.10;52.70;;;;;;5012790;28;20697;-64
2022/05/25 13:32:04;;;;;;;2.47;0.75;;;24.90;53.40;;;;;;5012831;28;20214;-63
2022/05/25 13:34:33;;;;;;;1.08;0.60;;;24.90;53.60;;;;;;5012303;28;20594;-64
2022/05/25 13:37:05;;;;;;;1.67;0.60;;;24.80;52.80;;;;;;5012601;28;20246;-64
2022/05/25 13:39:33;;;;;;;1.95;0.70;;;24.80;53.50;;;;;;5012511;28;20206;-64
2022/05/25 13:42:05;;;;;;;1.80;0.52;;;24.70;54.20;;;;;;5012539;28;20221;-63